VTBS

Bangkok/Suvarnabhumi International Airport

Airport
ICAO code
VTBS
IATA Code
BKK
Summary
ICAO Region
APAC
ICAO Territory
Location

Bang Phli, Samut Prakan,

Serving
Bangkok
Elevation
5 ft
Coordinates
13° 41' 32" N , 100° 45' 3" E
KCC
Airport LOS
Parallel Runway Operation
Airport WX
Cumulonimbus
Metar
Observation
VTBS 041400Z 05006KT 9999 FEW020 30/23 Q1011 NOSIG
Station
Chon Buri
Date/Time
2022-12-04 14:00:00
Wind direction
50°
Wind speed
06 kts
Lowest cloud amount
few clouds
Temperature
30°C
Dew point
23°C
Humidity
66%
QNH
1011 hPa
Weather condition
n/a

Description

International airport serving the city of Bangkok.

Climatology

Tropical Savanna climate (Köppen climate classification Aw)

Airport map

Aerial View

SKYbrary Partners:

Safety knowledge contributed by: